TimeEST,TemperatureF,Dew PointF,Humidity,Sea Level PressureIn,VisibilityMPH,Wind Direction,Wind SpeedMPH,Gust SpeedMPH,PrecipitationIn,Events,Conditions,WindDirDegrees,DateUTC
12:15 AM,62.6,61.0,94,30.00,10.0,SSE,3.5,-,N/A,,Clear,160,2012-12-10 05:15:00
12:35 AM,62.2,61.2,96,29.99,10.0,South,4.6,-,N/A,,Clear,170,2012-12-10 05:35:00
12:55 AM,61.7,61.0,97,29.98,10.0,South,3.5,-,N/A,,Scattered Clouds,170,2012-12-10 05:55:00
1:15 AM,61.9,61.3,98,29.98,10.0,South,3.5,-,N/A,,Mostly Cloudy,180,2012-12-10 06:15:00
1:55 AM,63.1,63.0,99,29.96,10.0,SSE,4.6,-,N/A,,Overcast,160,2012-12-10 06:55:00
2:15 AM,63.7,63.5,99,29.96,10.0,SSE,5.8,-,N/A,,Overcast,160,2012-12-10 07:15:00
2:55 AM,63.5,63.1,99,29.95,10.0,South,4.6,-,N/A,,Mostly Cloudy,170,2012-12-10 07:55:00
3:15 AM,63.5,63.5,100,29.94,10.0,South,3.5,-,N/A,,Mostly Cloudy,180,2012-12-10 08:15:00
3:35 AM,63.7,63.7,100,29.93,10.0,South,4.6,-,N/A,,Overcast,180,2012-12-10 08:35:00
3:55 AM,63.9,63.9,100,29.93,7.0,South,4.6,-,0.01,Rain,Rain,170,2012-12-10 08:55:00
4:15 AM,63.9,63.9,100,29.91,10.0,SSE,6.9,-,N/A,,Mostly Cloudy,160,2012-12-10 09:15:00
4:35 AM,64.0,64.0,100,29.90,10.0,SSE,5.8,-,N/A,,Overcast,160,2012-12-10 09:35:00
4:55 AM,64.0,64.0,100,29.90,10.0,South,3.5,-,N/A,,Overcast,180,2012-12-10 09:55:00
5:15 AM,64.4,64.4,100,29.88,10.0,SSE,5.8,-,N/A,,Overcast,160,2012-12-10 10:15:00
5:55 AM,64.4,64.4,100,29.88,10.0,SSW,3.5,-,N/A,,Overcast,210,2012-12-10 10:55:00
6:35 AM,63.9,63.9,100,29.88,10.0,SSW,4.6,-,N/A,,Overcast,210,2012-12-10 11:35:00
6:55 AM,64.0,64.0,100,29.87,10.0,SSE,3.5,-,N/A,,Overcast,160,2012-12-10 11:55:00
7:15 AM,63.5,63.5,100,29.87,10.0,South,3.5,-,N/A,,Overcast,190,2012-12-10 12:15:00
7:55 AM,64.4,64.4,100,29.87,7.0,SSW,8.1,-,N/A,,Overcast,200,2012-12-10 12:55:00
8:15 AM,64.4,64.4,100,29.87,3.0,SSW,5.8,-,N/A,,Overcast,200,2012-12-10 13:15:00
8:35 AM,64.6,64.6,100,29.86,5.0,SSW,6.9,-,N/A,,Overcast,210,2012-12-10 13:35:00
8:55 AM,64.6,64.6,100,29.87,4.0,SSW,6.9,-,0.01,Rain,Light Rain,200,2012-12-10 13:55:00
9:15 AM,65.1,65.1,100,29.86,10.0,SSW,6.9,-,N/A,,Overcast,210,2012-12-10 14:15:00
9:35 AM,65.3,65.3,100,29.87,10.0,SW,8.1,-,N/A,,Overcast,220,2012-12-10 14:35:00
9:55 AM,65.3,65.3,100,29.85,10.0,SSW,9.2,-,N/A,,Overcast,200,2012-12-10 14:55:00
10:15 AM,66.0,66.0,100,29.85,5.0,SSW,9.2,-,N/A,,Overcast,200,2012-12-10 15:15:00
10:35 AM,66.2,66.0,99,29.85,4.0,SSW,6.9,-,N/A,,Overcast,210,2012-12-10 15:35:00
10:55 AM,66.2,65.8,99,29.84,4.0,SW,11.5,-,N/A,,Overcast,220,2012-12-10 15:55:00
11:15 AM,66.9,66.0,97,29.84,5.0,SW,10.4,-,N/A,,Overcast,230,2012-12-10 16:15:00
11:35 AM,67.1,65.7,95,29.83,5.0,SW,10.4,-,N/A,,Overcast,220,2012-12-10 16:35:00
11:55 AM,68.0,65.8,93,29.82,7.0,SW,13.8,18.4,N/A,,Overcast,220,2012-12-10 16:55:00
12:15 PM,68.9,65.3,88,29.81,7.0,SW,12.7,-,N/A,,Mostly Cloudy,220,2012-12-10 17:15:00
12:35 PM,69.3,64.8,86,29.80,10.0,SW,15.0,18.4,N/A,,Scattered Clouds,220,2012-12-10 17:35:00
12:55 PM,69.8,63.9,81,29.79,10.0,SSW,12.7,24.2,N/A,,Scattered Clouds,210,2012-12-10 17:55:00
1:15 PM,70.9,63.5,77,29.78,10.0,SW,13.8,-,N/A,,Scattered Clouds,230,2012-12-10 18:15:00
1:35 PM,71.1,62.1,73,29.78,10.0,SW,16.1,21.9,N/A,,Mostly Cloudy,220,2012-12-10 18:35:00
1:55 PM,70.7,61.3,72,29.77,10.0,SSW,12.7,18.4,N/A,,Mostly Cloudy,210,2012-12-10 18:55:00
2:15 PM,71.1,60.1,68,29.75,10.0,SSW,11.5,21.9,N/A,,Clear,210,2012-12-10 19:15:00
2:35 PM,71.1,58.5,64,29.75,10.0,SW,13.8,-,N/A,,Clear,230,2012-12-10 19:35:00
2:55 PM,71.1,57.2,61,29.75,10.0,SSW,13.8,21.9,N/A,,Clear,210,2012-12-10 19:55:00
3:15 PM,70.3,55.9,60,29.75,10.0,SW,13.8,21.9,N/A,,Clear,220,2012-12-10 20:15:00
3:35 PM,69.8,56.8,63,29.75,10.0,SSW,9.2,-,N/A,,Clear,210,2012-12-10 20:35:00
3:55 PM,69.6,56.7,63,29.76,10.0,SW,11.5,-,N/A,,Clear,220,2012-12-10 20:55:00
4:15 PM,69.3,56.1,63,29.76,10.0,SW,11.5,16.1,N/A,,Clear,220,2012-12-10 21:15:00
4:35 PM,68.9,56.1,64,29.76,10.0,SW,11.5,-,N/A,,Clear,220,2012-12-10 21:35:00
4:55 PM,68.7,56.3,64,29.76,10.0,SSW,10.4,-,N/A,,Clear,210,2012-12-10 21:55:00
5:15 PM,67.3,56.3,68,29.76,10.0,SSW,5.8,-,N/A,,Clear,210,2012-12-10 22:15:00
5:35 PM,66.7,56.7,70,29.76,10.0,SSW,8.1,-,N/A,,Clear,210,2012-12-10 22:35:00
5:55 PM,65.8,56.7,72,29.76,10.0,SSW,5.8,-,N/A,,Clear,200,2012-12-10 22:55:00
6:15 PM,65.5,56.3,72,29.76,10.0,South,5.8,-,N/A,,Clear,190,2012-12-10 23:15:00
6:35 PM,64.8,56.3,74,29.76,10.0,South,6.9,-,N/A,,Clear,180,2012-12-10 23:35:00
6:55 PM,65.3,55.9,72,29.76,10.0,South,6.9,-,N/A,,Clear,180,2012-12-10 23:55:00
7:15 PM,65.7,55.9,71,29.76,10.0,South,6.9,-,N/A,,Mostly Cloudy,180,2012-12-11 00:15:00
7:35 PM,64.9,56.8,75,29.77,10.0,South,8.1,-,N/A,,Scattered Clouds,180,2012-12-11 00:35:00
7:55 PM,65.3,59.0,80,29.77,10.0,South,8.1,-,N/A,,Scattered Clouds,190,2012-12-11 00:55:00
8:15 PM,65.3,59.4,81,29.77,10.0,South,12.7,16.1,N/A,,Scattered Clouds,190,2012-12-11 01:15:00
8:35 PM,64.9,59.4,82,29.76,10.0,South,9.2,-,N/A,,Scattered Clouds,190,2012-12-11 01:35:00
8:55 PM,65.3,59.2,81,29.75,10.0,South,11.5,-,N/A,,Scattered Clouds,190,2012-12-11 01:55:00
9:15 PM,65.3,59.0,80,29.74,10.0,South,9.2,16.1,N/A,,Clear,190,2012-12-11 02:15:00
9:35 PM,64.9,59.0,81,29.74,10.0,South,10.4,-,N/A,,Clear,190,2012-12-11 02:35:00
9:55 PM,64.9,59.0,81,29.74,10.0,South,8.1,-,N/A,,Clear,190,2012-12-11 02:55:00
10:15 PM,64.6,59.0,82,29.75,10.0,SSW,10.4,-,N/A,,Clear,200,2012-12-11 03:15:00
10:35 PM,64.4,59.0,83,29.76,10.0,SSW,9.2,-,N/A,,Clear,200,2012-12-11 03:35:00
10:55 PM,65.3,59.2,81,29.76,10.0,SSW,11.5,19.6,N/A,,Clear,200,2012-12-11 03:55:00
11:15 PM,64.9,59.0,81,29.76,10.0,SSW,11.5,-,N/A,,Clear,200,2012-12-11 04:15:00
11:35 PM,64.8,58.6,81,29.75,10.0,South,9.2,-,N/A,,Clear,190,2012-12-11 04:35:00
11:55 PM,64.9,58.5,79,29.76,10.0,South,10.4,-,N/A,,Clear,190,2012-12-11 04:55:00